Linden Pride — H3VP — position and weather

sailwx.info

Track history (hours):
 
Tides and Currents Weather Stations Pressure Air Temp Water Temp Dewpoint Dewpoint Depression Visibility Wind Speed Wind Dir Waves Ship Positions

Linden Pride

Last reported at 2015-Apr-13 08:07 UTC. Time now 2015-Apr-20 00:52 UTC.
Position N 33°59' E 134°56'.

Length 230 m; beam 36.6 m.

Type: Tanker. MMSI: 356677000.

Date/timePositionNaut miles runAvg speedWind from/ knotsBaromVisibWave heightAir tempDewpointWater temp
2015-Apr-13 08:07N 33°59' E 134°56'915.4
2015-Apr-13 07:34N 34°08' E 134°56'1313.1
2015-Apr-13 06:33N 34°21' E 134°59'1413.7
2015-Apr-13 05:33N 34°33' E 135°06'1010.1
2015-Apr-13 04:32N 34°35' E 134°53'3 0.1
2015-Apr-12 01:33N 34°34' E 134°49'1313.0
2015-Apr-12 00:33N 34°35' E 135°05'9 9.3
2015-Apr-11 23:33N 34°40' E 135°15'2 2.3
2015-Apr-11 22:29N 34°42' E 135°15'0 0.0
2015-Apr-11 21:23N 34°42' E 135°15'0 0.0
2015-Apr-11 20:29N 34°42' E 135°15'0 0.0
2015-Apr-11 19:29N 34°42' E 135°15'0 0.0
2015-Apr-11 18:17N 34°42' E 135°15'0 0.0
2015-Apr-11 17:29N 34°42' E 135°15'0 0.0
2015-Apr-11 16:29N 34°42' E 135°15'0 0.0
2015-Apr-11 15:23N 34°42' E 135°15'0 0.0
2015-Apr-11 14:29N 34°42' E 135°15'0 0.0
2015-Apr-11 13:29N 34°42' E 135°15'0 0.0
2015-Apr-11 12:29N 34°42' E 135°15'0 0.0
2015-Apr-11 11:29N 34°42' E 135°15'0 0.0
2015-Apr-11 10:29N 34°42' E 135°15'0 0.0
2015-Apr-11 09:29N 34°42' E 135°15'0 0.0
2015-Apr-11 08:17N 34°42' E 135°15'0 0.0
2015-Apr-11 07:29N 34°42' E 135°15'0 0.0
2015-Apr-11 06:23N 34°42' E 135°15'0 0.0
2015-Apr-11 05:29N 34°42' E 135°15'0 0.0
2015-Apr-11 04:29N 34°42' E 135°15'0 0.0
2015-Apr-11 03:29N 34°42' E 135°15'0 0.0
2015-Apr-11 02:29N 34°42' E 135°15'4 3.8
2015-Apr-11 01:33N 34°39' E 135°16'8 8.0
2015-Apr-11 00:34N 34°33' E 135°24'2 1.5
2015-Apr-10 23:28N 34°33' E 135°25'0 0.0
2015-Apr-10 22:28N 34°33' E 135°25'0 0.0
2015-Apr-10 21:28N 34°33' E 135°25'0 0.0
2015-Apr-10 20:28N 34°33' E 135°25'0 0.0
2015-Apr-10 19:28N 34°33' E 135°25'0 0.0
2015-Apr-10 18:28N 34°33' E 135°25'0 0.0
2015-Apr-10 17:28N 34°33' E 135°25'0 0.0
2015-Apr-10 16:28N 34°33' E 135°25'0 0.0
2015-Apr-10 15:28N 34°33' E 135°25'0 0.0
2015-Apr-10 14:28N 34°33' E 135°25'0 0.0
2015-Apr-10 13:28N 34°33' E 135°25'0 0.0
2015-Apr-10 12:28N 34°33' E 135°25'0 0.0
2015-Apr-10 11:28N 34°33' E 135°25'0 0.0
2015-Apr-10 10:28N 34°33' E 135°25'0 0.0
2015-Apr-10 09:22N 34°33' E 135°25'0 0.0
2015-Apr-10 08:28N 34°33' E 135°25'0 0.0
2015-Apr-10 07:28N 34°33' E 135°25'0 0.0
2015-Apr-10 06:28N 34°33' E 135°25'0 0.0
2015-Apr-10 05:28N 34°33' E 135°25'0 0.0
2015-Apr-10 03:28N 34°33' E 135°25'0 0.0
2015-Apr-10 02:28N 34°33' E 135°25'3 2.6
2015-Apr-10 01:31N 34°33' E 135°23'2 2.2
2015-Apr-10 00:33N 34°34' E 135°20'0 0.0
2015-Apr-09 23:27N 34°34' E 135°20'0 0.0
2015-Apr-09 22:27N 34°34' E 135°20'0 0.0
2015-Apr-09 21:33N 34°34' E 135°20'0 0.1
2015-Apr-09 20:33N 34°34' E 135°20'7 6.9
2015-Apr-09 19:34N 34°30' E 135°14'1513.7
2015-Apr-09 18:28N 34°19' E 135°01'1011.5
2015-Apr-09 17:34N 34°09' E 134°59'9 9.2
2015-Apr-09 16:33N 33°60' E 134°58'  
Track history (hours):
 
Tides and Currents Weather Stations Pressure Air Temp Water Temp Dewpoint Dewpoint Depression Visibility Wind Speed Wind Dir Waves Ship Positions

Linden Pride

Last reported at 2015-Apr-13 08:07 UTC. Time now 2015-Apr-20 00:52 UTC.
Position N 33°59' E 134°56'.

Length 230 m; beam 36.6 m.

Type: Tanker. MMSI: 356677000.

Date/timePositionNaut miles runAvg speedWind from/ knotsBaromVisibWave heightAir tempDewpointWater temp
2015-Apr-13 08:07N 33°59' E 134°56'915.4
2015-Apr-13 07:34N 34°08' E 134°56'1313.1
2015-Apr-13 06:33N 34°21' E 134°59'1413.7
2015-Apr-13 05:33N 34°33' E 135°06'1010.1
2015-Apr-13 04:32N 34°35' E 134°53'3 0.1
2015-Apr-12 01:33N 34°34' E 134°49'1313.0
2015-Apr-12 00:33N 34°35' E 135°05'9 9.3
2015-Apr-11 23:33N 34°40' E 135°15'2 2.3
2015-Apr-11 22:29N 34°42' E 135°15'0 0.0
2015-Apr-11 21:23N 34°42' E 135°15'0 0.0
2015-Apr-11 20:29N 34°42' E 135°15'0 0.0
2015-Apr-11 19:29N 34°42' E 135°15'0 0.0
2015-Apr-11 18:17N 34°42' E 135°15'0 0.0
2015-Apr-11 17:29N 34°42' E 135°15'0 0.0
2015-Apr-11 16:29N 34°42' E 135°15'0 0.0
2015-Apr-11 15:23N 34°42' E 135°15'0 0.0
2015-Apr-11 14:29N 34°42' E 135°15'0 0.0
2015-Apr-11 13:29N 34°42' E 135°15'0 0.0
2015-Apr-11 12:29N 34°42' E 135°15'0 0.0
2015-Apr-11 11:29N 34°42' E 135°15'0 0.0
2015-Apr-11 10:29N 34°42' E 135°15'0 0.0
2015-Apr-11 09:29N 34°42' E 135°15'0 0.0
2015-Apr-11 08:17N 34°42' E 135°15'0 0.0
2015-Apr-11 07:29N 34°42' E 135°15'0 0.0
2015-Apr-11 06:23N 34°42' E 135°15'0 0.0
2015-Apr-11 05:29N 34°42' E 135°15'0 0.0
2015-Apr-11 04:29N 34°42' E 135°15'0 0.0
2015-Apr-11 03:29N 34°42' E 135°15'0 0.0
2015-Apr-11 02:29N 34°42' E 135°15'4 3.8
2015-Apr-11 01:33N 34°39' E 135°16'8 8.0
2015-Apr-11 00:34N 34°33' E 135°24'2 1.5
2015-Apr-10 23:28N 34°33' E 135°25'0 0.0
2015-Apr-10 22:28N 34°33' E 135°25'0 0.0
2015-Apr-10 21:28N 34°33' E 135°25'0 0.0
2015-Apr-10 20:28N 34°33' E 135°25'0 0.0
2015-Apr-10 19:28N 34°33' E 135°25'0 0.0
2015-Apr-10 18:28N 34°33' E 135°25'0 0.0
2015-Apr-10 17:28N 34°33' E 135°25'0 0.0
2015-Apr-10 16:28N 34°33' E 135°25'0 0.0
2015-Apr-10 15:28N 34°33' E 135°25'0 0.0
2015-Apr-10 14:28N 34°33' E 135°25'0 0.0
2015-Apr-10 13:28N 34°33' E 135°25'0 0.0
2015-Apr-10 12:28N 34°33' E 135°25'0 0.0
2015-Apr-10 11:28N 34°33' E 135°25'0 0.0
2015-Apr-10 10:28N 34°33' E 135°25'0 0.0
2015-Apr-10 09:22N 34°33' E 135°25'0 0.0
2015-Apr-10 08:28N 34°33' E 135°25'0 0.0
2015-Apr-10 07:28N 34°33' E 135°25'0 0.0
2015-Apr-10 06:28N 34°33' E 135°25'0 0.0
2015-Apr-10 05:28N 34°33' E 135°25'0 0.0
2015-Apr-10 03:28N 34°33' E 135°25'0 0.0
2015-Apr-10 02:28N 34°33' E 135°25'3 2.6
2015-Apr-10 01:31N 34°33' E 135°23'2 2.2
2015-Apr-10 00:33N 34°34' E 135°20'0 0.0
2015-Apr-09 23:27N 34°34' E 135°20'0 0.0
2015-Apr-09 22:27N 34°34' E 135°20'0 0.0
2015-Apr-09 21:33N 34°34' E 135°20'0 0.1
2015-Apr-09 20:33N 34°34' E 135°20'7 6.9
2015-Apr-09 19:34N 34°30' E 135°14'1513.7
2015-Apr-09 18:28N 34°19' E 135°01'1011.5
2015-Apr-09 17:34N 34°09' E 134°59'9 9.2
2015-Apr-09 16:33N 33°60' E 134°58'  

Dump ship's entire track history